Time;durP1;ratioP1;P1;durP2;ratioP2;P2;SDS_P1;SDS_P2;PMS_P1;PMS_P2;Temp;Humidity;BMP_temperature;BMP_pressure;BME280_temperature;BME280_humidity;BME280_pressure;Samples;Min_cycle;Max_cycle;Signal;HPM_P1;HPM_P2
2023/05/29 00:02:06;;;;;;;6.93;3.33;;;14.20;44.10;;;;;;6010611;23;20418;-70
2023/05/29 00:04:33;;;;;;;7.77;2.93;;;14.30;44.20;;;;;;6010877;23;20419;-70
2023/05/29 00:07:00;;;;;;;8.13;2.60;;;14.10;45.00;;;;;;6010665;23;20926;-70
2023/05/29 00:09:27;;;;;;;8.10;3.27;;;14.20;43.80;;;;;;6011002;23;20437;-71
2023/05/29 00:11:54;;;;;;;6.97;2.60;;;14.20;43.70;;;;;;6010912;23;20757;-71
2023/05/29 00:14:23;;;;;;;7.70;2.90;;;14.20;43.80;;;;;;6011125;23;20471;-70
2023/05/29 00:16:50;;;;;;;9.27;3.07;;;14.20;43.60;;;;;;6010891;23;20430;-70
2023/05/29 00:19:17;;;;;;;6.80;3.23;;;14.10;45.60;;;;;;6010637;23;20494;-70
2023/05/29 00:21:47;;;;;;;8.23;3.13;;;13.90;47.50;;;;;;6010622;23;20419;-70
2023/05/29 00:24:14;;;;;;;6.53;2.77;;;13.90;46.30;;;;;;6010977;23;20422;-71
2023/05/29 00:26:41;;;;;;;6.17;2.97;;;13.90;46.80;;;;;;6010946;23;20419;-70
2023/05/29 00:29:08;;;;;;;6.60;3.10;;;13.80;45.60;;;;;;6011044;23;20418;-70
2023/05/29 00:31:36;;;;;;;5.83;2.30;;;13.80;46.90;;;;;;6010324;23;20427;-70
2023/05/29 00:34:03;;;;;;;7.97;3.20;;;13.80;46.90;;;;;;6010941;23;20418;-70
2023/05/29 00:36:31;;;;;;;7.00;2.80;;;13.80;47.40;;;;;;6010952;23;20425;-70
2023/05/29 00:38:58;;;;;;;6.27;2.63;;;13.80;47.40;;;;;;6010835;23;20912;-70
2023/05/29 00:41:25;;;;;;;8.33;3.73;;;13.80;47.40;;;;;;6010763;23;20418;-70
2023/05/29 00:43:51;;;;;;;7.40;3.17;;;13.80;47.40;;;;;;6010584;23;20418;-70
2023/05/29 00:46:20;;;;;;;7.57;3.77;;;13.70;47.30;;;;;;6010484;23;20430;-70
2023/05/29 00:48:48;;;;;;;9.07;2.50;;;13.70;47.30;;;;;;6010509;23;20415;-71
2023/05/29 00:51:16;;;;;;;7.83;3.30;;;13.60;47.20;;;;;;6010894;23;20426;-70
2023/05/29 00:53:44;;;;;;;7.10;3.20;;;13.40;48.20;;;;;;6010878;23;20425;-71
2023/05/29 00:56:12;;;;;;;8.60;3.30;;;13.30;49.60;;;;;;6010775;23;20418;-70
2023/05/29 00:58:39;;;;;;;7.20;3.17;;;13.30;50.40;;;;;;6010572;23;20438;-70
2023/05/29 01:01:05;;;;;;;9.90;3.33;;;13.30;50.80;;;;;;6010643;23;20418;-70
2023/05/29 01:03:33;;;;;;;12.33;3.83;;;13.20;51.20;;;;;;6010570;23;20425;-70
2023/05/29 01:06:03;;;;;;;8.70;3.80;;;13.20;51.70;;;;;;6011138;23;20465;-71
2023/05/29 01:08:30;;;;;;;8.43;3.03;;;13.30;51.70;;;;;;6012551;23;20405;-71
2023/05/29 01:11:04;;;;;;;10.07;3.40;;;13.20;52.50;;;;;;6012543;23;20425;-71
2023/05/29 01:13:33;;;;;;;12.43;3.20;;;12.90;55.30;;;;;;6012486;23;20432;-71
2023/05/29 01:16:06;;;;;;;7.30;3.67;;;12.80;57.90;;;;;;6012429;23;20934;-71
2023/05/29 01:18:40;;;;;;;8.23;2.80;;;12.60;58.90;;;;;;6011787;23;20403;-70
2023/05/29 01:21:15;;;;;;;7.07;2.90;;;12.60;60.20;;;;;;6012290;23;20403;-70
2023/05/29 01:24:00;;;;;;;7.10;3.00;;;12.50;61.60;;;;;;6012302;23;20402;-70
2023/05/29 01:26:56;;;;;;;7.10;3.37;;;12.50;63.30;;;;;;6012268;23;20406;-71
2023/05/29 01:29:27;;;;;;;8.10;3.70;;;12.50;63.20;;;;;;6012487;23;20483;-71
2023/05/29 01:31:55;;;;;;;9.93;3.90;;;12.50;63.30;;;;;;6011709;23;20940;-70
2023/05/29 01:34:22;;;;;;;10.90;3.50;;;12.40;63.20;;;;;;6012384;23;20418;-71
2023/05/29 01:36:48;;;;;;;5.90;2.37;;;12.20;66.10;;;;;;6012398;23;20733;-70
2023/05/29 01:39:16;;;;;;;6.97;3.33;;;12.20;67.00;;;;;;6011821;23;20449;-70
2023/05/29 01:41:44;;;;;;;11.23;3.30;;;12.20;66.80;;;;;;6011854;23;20432;-70
2023/05/29 01:44:14;;;;;;;6.60;3.13;;;12.30;67.00;;;;;;6012051;23;20454;-70
2023/05/29 01:46:42;;;;;;;7.10;2.97;;;12.30;66.90;;;;;;6011826;23;20504;-70
2023/05/29 01:49:10;;;;;;;6.07;2.93;;;12.40;67.20;;;;;;6012131;23;20416;-70
2023/05/29 01:51:37;;;;;;;7.03;3.20;;;12.30;68.80;;;;;;6011782;23;20985;-70
2023/05/29 01:54:05;;;;;;;8.53;3.70;;;12.30;68.60;;;;;;6011665;23;20422;-70
2023/05/29 01:56:32;;;;;;;7.60;3.30;;;12.30;71.10;;;;;;6012087;23;20426;-70
2023/05/29 01:59:00;;;;;;;7.00;3.00;;;12.40;71.20;;;;;;6012280;23;20446;-70
2023/05/29 02:01:28;;;;;;;9.33;3.53;;;12.30;71.10;;;;;;6011406;23;20938;-70
2023/05/29 02:03:55;;;;;;;5.30;2.30;;;12.30;72.20;;;;;;6011911;23;20422;-71
2023/05/29 02:06:22;;;;;;;8.73;3.30;;;12.40;72.80;;;;;;6011757;23;20418;-70
2023/05/29 02:08:49;;;;;;;6.90;3.20;;;12.30;74.00;;;;;;6011992;23;20418;-70
2023/05/29 02:11:16;;;;;;;6.40;2.20;;;12.30;75.70;;;;;;6011945;23;20541;-71
2023/05/29 02:13:43;;;;;;;15.53;3.93;;;12.30;76.10;;;;;;6012118;23;20418;-71
2023/05/29 02:16:10;;;;;;;4.90;2.20;;;12.30;76.70;;;;;;6011979;23;20425;-70
2023/05/29 02:18:38;;;;;;;9.93;3.03;;;12.30;78.60;;;;;;6010908;23;20454;-70
2023/05/29 02:21:05;;;;;;;13.53;3.40;;;12.20;78.90;;;;;;6011896;23;20421;-70
2023/05/29 02:23:32;;;;;;;6.03;2.60;;;12.20;78.90;;;;;;6011998;23;20733;-70
2023/05/29 02:25:59;;;;;;;10.10;4.07;;;12.20;78.90;;;;;;6011936;23;20739;-71
2023/05/29 02:28:26;;;;;;;11.00;3.80;;;12.10;78.90;;;;;;6011570;23;20418;-70
2023/05/29 02:30:53;;;;;;;11.83;3.23;;;12.10;78.90;;;;;;6011375;23;20913;-71
2023/05/29 02:33:19;;;;;;;9.17;3.83;;;12.10;78.90;;;;;;6011736;23;20754;-70
2023/05/29 02:35:47;;;;;;;13.00;4.00;;;12.00;78.80;;;;;;6011782;23;20444;-70
2023/05/29 02:38:15;;;;;;;11.33;3.00;;;12.00;78.80;;;;;;6011792;23;20421;-71
2023/05/29 02:40:41;;;;;;;6.67;2.47;;;12.00;78.80;;;;;;6011658;23;20445;-70
2023/05/29 02:43:10;;;;;;;12.80;4.47;;;11.90;80.60;;;;;;6011274;23;20427;-71
2023/05/29 02:45:36;;;;;;;10.80;3.43;;;11.80;81.60;;;;;;6011874;23;20706;-71
2023/05/29 02:48:03;;;;;;;10.40;3.30;;;11.80;81.90;;;;;;6011020;23;20910;-71
2023/05/29 02:50:30;;;;;;;14.80;5.27;;;11.70;83.50;;;;;;6011643;23;20417;-70
2023/05/29 02:52:58;;;;;;;12.37;3.67;;;11.60;84.20;;;;;;6011518;23;20444;-70
2023/05/29 02:55:25;;;;;;;8.73;3.77;;;11.60;85.50;;;;;;6011529;23;20432;-70
2023/05/29 02:57:55;;;;;;;9.70;3.00;;;11.50;86.00;;;;;;6011553;23;20448;-70
2023/05/29 03:00:21;;;;;;;8.43;3.07;;;11.60;85.20;;;;;;6011535;23;20441;-70
2023/05/29 03:02:48;;;;;;;12.50;4.13;;;11.60;84.50;;;;;;6010916;23;20425;-70
2023/05/29 03:05:16;;;;;;;6.67;3.30;;;11.50;83.90;;;;;;6011114;23;20425;-70
2023/05/29 03:07:43;;;;;;;8.50;2.63;;;11.40;85.60;;;;;;6011526;23;20480;-70
2023/05/29 03:10:11;;;;;;;10.70;3.60;;;11.40;84.90;;;;;;6011613;23;20421;-70
2023/05/29 03:12:39;;;;;;;11.40;3.33;;;11.40;83.10;;;;;;6010849;23;20426;-70
2023/05/29 03:15:07;;;;;;;9.97;2.97;;;11.40;84.50;;;;;;6011581;23;20421;-71
2023/05/29 03:17:36;;;;;;;18.30;3.93;;;11.40;82.20;;;;;;6011376;23;20530;-71
2023/05/29 03:20:07;;;;;;;17.60;3.47;;;11.40;82.00;;;;;;6011152;23;20440;-71
2023/05/29 03:22:34;;;;;;;10.10;3.20;;;11.30;82.00;;;;;;6010979;23;20478;-70
2023/05/29 03:25:02;;;;;;;5.70;2.60;;;11.30;82.80;;;;;;6010856;23;20424;-67
2023/05/29 03:27:30;;;;;;;10.47;3.00;;;11.30;83.00;;;;;;6010908;23;20427;-67
2023/05/29 03:29:57;;;;;;;9.33;3.03;;;11.20;83.10;;;;;;6010322;23;20425;-67
2023/05/29 03:32:24;;;;;;;7.23;3.67;;;11.20;84.20;;;;;;6011203;23;20464;-67
2023/05/29 03:34:51;;;;;;;10.33;3.10;;;11.10;85.60;;;;;;6010863;23;20906;-67
2023/05/29 03:37:18;;;;;;;8.23;2.57;;;11.10;85.70;;;;;;6011280;23;20712;-67
2023/05/29 03:39:45;;;;;;;16.50;4.93;;;11.00;85.60;;;;;;6010726;23;20452;-67
2023/05/29 03:42:11;;;;;;;10.17;3.70;;;11.10;85.70;;;;;;6010978;23;20827;-67
2023/05/29 03:44:39;;;;;;;13.27;3.53;;;11.10;86.30;;;;;;6011137;23;20431;-67
2023/05/29 03:47:08;;;;;;;12.60;3.53;;;11.10;85.70;;;;;;6011146;23;20420;-67
2023/05/29 03:49:35;;;;;;;12.93;4.10;;;11.00;88.00;;;;;;6011024;23;20472;-67
2023/05/29 03:52:02;;;;;;;13.80;3.20;;;11.00;87.70;;;;;;6011051;23;20421;-67
2023/05/29 03:54:28;;;;;;;11.00;3.73;;;10.90;88.10;;;;;;6010311;23;20427;-67
2023/05/29 03:56:55;;;;;;;12.03;4.17;;;10.90;88.40;;;;;;6010312;23;20428;-67
2023/05/29 03:59:22;;;;;;;10.53;3.30;;;11.00;88.20;;;;;;6010949;23;20425;-66
2023/05/29 04:01:50;;;;;;;11.63;4.77;;;10.90;88.90;;;;;;6010824;23;20429;-66
2023/05/29 04:04:17;;;;;;;13.40;3.83;;;10.90;89.70;;;;;;6010682;23;20422;-67
2023/05/29 04:06:44;;;;;;;14.70;3.10;;;10.90;90.60;;;;;;6010526;23;20421;-67
2023/05/29 04:09:11;;;;;;;8.70;3.20;;;10.80;91.30;;;;;;6010608;23;20420;-67
2023/05/29 04:11:38;;;;;;;13.27;3.90;;;10.80;91.30;;;;;;6010398;23;20451;-67
2023/05/29 04:14:05;;;;;;;15.40;3.80;;;10.80;91.30;;;;;;6010804;23;20909;-67
2023/05/29 04:16:32;;;;;;;9.63;3.10;;;10.80;91.30;;;;;;6010585;23;20420;-67
2023/05/29 04:19:00;;;;;;;13.60;3.27;;;10.80;91.30;;;;;;6010686;23;20898;-67
2023/05/29 04:21:27;;;;;;;10.63;4.17;;;10.90;91.30;;;;;;6010662;23;20768;-67
2023/05/29 04:23:54;;;;;;;12.50;3.87;;;10.80;91.30;;;;;;6010571;23;20829;-67
2023/05/29 04:26:24;;;;;;;13.47;2.87;;;10.80;91.30;;;;;;6010714;23;20476;-68
2023/05/29 04:28:56;;;;;;;12.07;3.90;;;10.90;90.80;;;;;;6011037;23;20405;-69
2023/05/29 04:31:24;;;;;;;6.97;2.40;;;10.90;91.10;;;;;;6010241;23;20893;-67
2023/05/29 04:33:54;;;;;;;10.37;3.40;;;11.00;91.20;;;;;;6010486;23;20535;-67
2023/05/29 04:36:25;;;;;;;15.03;3.70;;;11.00;90.10;;;;;;6010823;23;20419;-67
2023/05/29 04:38:52;;;;;;;12.40;3.30;;;11.00;90.40;;;;;;6010367;23;20496;-66
2023/05/29 04:41:19;;;;;;;9.37;3.17;;;11.00;89.00;;;;;;6011016;23;20445;-66
2023/05/29 04:43:46;;;;;;;15.10;3.03;;;11.10;87.30;;;;;;6012474;23;20425;-66
2023/05/29 04:46:15;;;;;;;16.50;3.97;;;11.20;87.00;;;;;;6012170;23;20421;-68
2023/05/29 04:48:43;;;;;;;12.27;2.60;;;11.20;87.60;;;;;;6012806;23;20421;-68
2023/05/29 04:51:10;;;;;;;13.90;3.10;;;11.20;85.70;;;;;;6012662;23;20448;-68
2023/05/29 04:53:40;;;;;;;13.80;3.67;;;11.20;85.40;;;;;;6012646;23;20453;-68
2023/05/29 04:56:07;;;;;;;16.23;3.47;;;11.30;85.80;;;;;;6012272;23;20424;-68
2023/05/29 04:58:33;;;;;;;12.53;3.33;;;11.30;85.80;;;;;;6012337;23;20485;-68
2023/05/29 05:01:02;;;;;;;13.10;4.10;;;11.30;85.20;;;;;;6012462;23;20756;-68
2023/05/29 05:03:30;;;;;;;13.43;3.30;;;11.40;85.00;;;;;;6012551;23;20424;-67
2023/05/29 05:05:58;;;;;;;12.00;3.97;;;11.40;84.30;;;;;;6012553;23;20929;-67
2023/05/29 05:08:24;;;;;;;15.67;3.13;;;11.40;83.90;;;;;;6012222;23;20421;-67
2023/05/29 05:10:53;;;;;;;11.10;3.10;;;11.50;83.70;;;;;;6012432;23;20417;-67
2023/05/29 05:13:19;;;;;;;19.83;3.77;;;11.50;84.20;;;;;;6012493;23;20743;-70
2023/05/29 05:15:46;;;;;;;13.33;3.57;;;11.60;84.40;;;;;;6012221;23;20421;-70
2023/05/29 05:18:13;;;;;;;15.53;3.87;;;11.60;84.10;;;;;;6011982;23;20424;-70
2023/05/29 05:20:40;;;;;;;14.33;4.03;;;11.80;82.70;;;;;;6011907;23;20447;-70
2023/05/29 05:23:07;;;;;;;13.07;2.57;;;11.90;79.80;;;;;;6011752;23;20428;-71
2023/05/29 05:25:34;;;;;;;16.47;4.00;;;12.20;78.90;;;;;;6011549;23;20439;-69
2023/05/29 05:28:03;;;;;;;11.57;3.30;;;12.50;79.20;;;;;;6012323;23;20505;-67
2023/05/29 05:30:30;;;;;;;9.93;2.87;;;12.70;76.60;;;;;;6012210;23;20430;-70
2023/05/29 05:32:57;;;;;;;10.57;2.70;;;12.80;75.10;;;;;;6012073;23;20422;-71
2023/05/29 05:35:24;;;;;;;8.87;3.27;;;12.80;73.70;;;;;;6012027;23;20418;-71
2023/05/29 05:37:51;;;;;;;10.97;2.83;;;12.90;73.70;;;;;;6011856;23;20419;-70
2023/05/29 05:40:18;;;;;;;8.30;2.70;;;13.10;71.90;;;;;;6012037;23;20894;-71
2023/05/29 05:42:44;;;;;;;13.73;3.73;;;13.10;70.60;;;;;;6011845;23;20442;-71
2023/05/29 05:45:13;;;;;;;8.77;2.63;;;13.40;72.10;;;;;;6011998;23;20419;-71
2023/05/29 05:47:39;;;;;;;15.03;3.00;;;13.20;68.60;;;;;;6011927;23;20418;-71
2023/05/29 05:50:07;;;;;;;12.47;3.43;;;13.40;68.70;;;;;;6011767;23;20419;-71
2023/05/29 05:52:34;;;;;;;13.30;3.53;;;13.80;67.80;;;;;;6011038;23;20419;-70
2023/05/29 05:55:00;;;;;;;10.03;3.43;;;14.20;66.70;;;;;;6011659;23;20742;-71
2023/05/29 05:57:27;;;;;;;13.83;3.67;;;13.90;64.70;;;;;;6011211;23;20425;-71
2023/05/29 05:59:54;;;;;;;13.70;2.90;;;13.80;64.50;;;;;;6011087;23;20415;-70
2023/05/29 06:02:22;;;;;;;17.77;4.10;;;14.00;64.60;;;;;;6011870;23;20430;-71
2023/05/29 06:04:49;;;;;;;14.20;4.00;;;14.30;64.90;;;;;;6011633;23;20419;-71
2023/05/29 06:07:16;;;;;;;11.70;3.17;;;14.40;65.00;;;;;;6011223;23;20419;-71
2023/05/29 06:09:43;;;;;;;14.30;3.90;;;14.40;63.80;;;;;;6010689;23;20426;-71
2023/05/29 06:12:10;;;;;;;13.77;3.13;;;14.70;61.80;;;;;;6010594;23;20965;-71
2023/05/29 06:14:37;;;;;;;11.70;3.10;;;14.90;62.70;;;;;;6011247;23;20419;-71
2023/05/29 06:17:04;;;;;;;11.83;3.20;;;14.70;61.80;;;;;;6011014;23;20430;-70
2023/05/29 06:19:32;;;;;;;13.90;3.20;;;14.90;61.00;;;;;;6010991;23;20456;-71
2023/05/29 06:21:58;;;;;;;12.60;3.37;;;14.70;59.70;;;;;;6010919;23;20748;-70
2023/05/29 06:24:25;;;;;;;10.20;3.10;;;15.00;60.70;;;;;;6011375;23;20419;-70
2023/05/29 06:26:52;;;;;;;14.30;3.30;;;15.00;59.40;;;;;;6011135;23;20425;-70
2023/05/29 06:29:19;;;;;;;13.60;3.10;;;14.90;57.20;;;;;;6011472;23;20426;-71
2023/05/29 06:31:45;;;;;;;14.83;3.83;;;15.10;57.30;;;;;;6011248;23;20429;-71
2023/05/29 06:34:12;;;;;;;13.13;2.90;;;15.20;57.40;;;;;;6011160;23;20419;-71
2023/05/29 06:36:41;;;;;;;11.07;3.50;;;15.00;57.20;;;;;;6010855;23;20419;-67
2023/05/29 06:39:08;;;;;;;11.57;3.20;;;15.30;57.30;;;;;;6011626;23;20419;-67
2023/05/29 06:41:35;;;;;;;10.70;3.63;;;15.40;57.50;;;;;;6010861;23;20443;-71
2023/05/29 06:44:02;;;;;;;8.43;2.90;;;15.40;55.80;;;;;;6011569;23;20497;-71
2023/05/29 06:46:29;;;;;;;14.80;3.80;;;15.90;53.70;;;;;;6011296;23;20425;-68
2023/05/29 06:48:56;;;;;;;12.67;3.10;;;15.50;53.50;;;;;;6011429;23;20419;-68
2023/05/29 06:51:22;;;;;;;15.80;3.63;;;15.80;53.70;;;;;;6011075;23;20415;-68
2023/05/29 06:53:51;;;;;;;14.00;3.43;;;15.60;54.00;;;;;;6010942;23;20425;-68
2023/05/29 06:56:17;;;;;;;10.10;3.10;;;15.70;54.80;;;;;;6011546;23;20453;-68
2023/05/29 06:58:45;;;;;;;9.20;2.60;;;15.80;55.40;;;;;;6011331;23;20426;-70
2023/05/29 07:01:12;;;;;;;12.33;2.40;;;15.40;54.30;;;;;;6010459;23;20828;-71
2023/05/29 07:03:39;;;;;;;10.43;2.77;;;15.20;53.40;;;;;;6010129;23;20445;-70
2023/05/29 07:06:07;;;;;;;12.27;3.60;;;15.40;52.80;;;;;;6010945;23;20426;-71
2023/05/29 07:08:33;;;;;;;10.97;2.77;;;15.80;56.20;;;;;;6010671;23;20419;-63
2023/05/29 07:11:02;;;;;;;13.20;3.43;;;16.00;52.60;;;;;;6008484;23;20896;-63
2023/05/29 07:13:30;;;;;;;13.20;3.37;;;15.80;52.20;;;;;;6010233;23;20403;-63
2023/05/29 07:15:56;;;;;;;13.27;4.50;;;15.70;54.60;;;;;;6010436;23;20418;-63
2023/05/29 07:18:23;;;;;;;11.73;3.00;;;15.90;50.90;;;;;;6010239;23;20644;-63
2023/05/29 07:20:50;;;;;;;12.03;3.30;;;16.10;51.80;;;;;;6010330;23;20957;-63
2023/05/29 07:23:17;;;;;;;13.40;2.80;;;15.90;51.40;;;;;;6009995;23;20418;-63
2023/05/29 07:25:44;;;;;;;14.20;4.50;;;16.60;53.20;;;;;;6010355;23;20423;-63
2023/05/29 07:28:12;;;;;;;12.30;3.80;;;16.80;50.30;;;;;;6009387;23;20418;-63
2023/05/29 07:30:38;;;;;;;13.27;3.73;;;17.30;53.50;;;;;;6010001;23;20430;-63
2023/05/29 07:33:06;;;;;;;12.40;3.57;;;17.00;47.70;;;;;;6010026;23;20418;-63
2023/05/29 07:35:33;;;;;;;9.83;2.83;;;16.70;46.30;;;;;;6010023;23;20419;-63
2023/05/29 07:38:00;;;;;;;20.40;2.60;;;16.40;49.80;;;;;;6010033;23;20422;-63
2023/05/29 07:40:27;;;;;;;11.90;3.13;;;16.40;49.80;;;;;;6010095;23;20525;-63
2023/05/29 07:42:54;;;;;;;9.90;3.17;;;16.30;49.80;;;;;;6009669;23;20904;-62
2023/05/29 07:45:22;;;;;;;12.03;3.50;;;16.50;50.00;;;;;;6009814;23;20419;-63
2023/05/29 07:47:48;;;;;;;16.87;5.03;;;16.60;50.10;;;;;;6009830;23;20418;-63
2023/05/29 07:50:16;;;;;;;9.40;2.63;;;16.90;50.30;;;;;;6009928;23;20425;-63
2023/05/29 07:52:43;;;;;;;12.50;3.30;;;16.90;50.30;;;;;;6009941;23;20420;-63
2023/05/29 07:55:10;;;;;;;12.90;3.13;;;17.10;50.50;;;;;;6009700;23;20425;-63
2023/05/29 07:57:37;;;;;;;7.20;2.73;;;16.90;46.90;;;;;;6009851;23;20423;-63
2023/05/29 08:00:07;;;;;;;17.73;3.40;;;16.60;47.10;;;;;;6009719;23;20457;-63
2023/05/29 08:02:36;;;;;;;9.30;2.47;;;17.10;48.10;;;;;;6009684;23;20498;-71
2023/05/29 08:05:03;;;;;;;6.87;2.10;;;17.00;46.90;;;;;;6009955;23;20418;-71
2023/05/29 08:07:30;;;;;;;5.97;1.63;;;17.00;46.50;;;;;;6010163;23;20419;-71
2023/05/29 08:09:57;;;;;;;15.10;3.73;;;16.80;47.50;;;;;;6010102;23;20445;-71
2023/05/29 08:12:23;;;;;;;10.63;3.47;;;17.10;45.80;;;;;;6010196;23;20422;-71
2023/05/29 08:14:51;;;;;;;13.10;3.30;;;17.20;47.10;;;;;;6010536;23;20423;-71
2023/05/29 08:17:17;;;;;;;11.03;3.37;;;17.50;49.50;;;;;;6009980;23;20429;-71
2023/05/29 08:19:46;;;;;;;12.83;3.67;;;18.30;45.00;;;;;;6010169;23;20422;-71
2023/05/29 08:22:15;;;;;;;13.40;3.70;;;17.60;42.10;;;;;;6009908;23;20955;-71
2023/05/29 08:24:41;;;;;;;13.47;3.40;;;18.10;43.10;;;;;;6010083;23;20926;-71
2023/05/29 08:27:08;;;;;;;15.80;4.10;;;18.10;42.60;;;;;;6010360;23;20442;-71
2023/05/29 08:29:35;;;;;;;10.10;3.00;;;17.90;39.70;;;;;;6009955;23;20426;-71
2023/05/29 08:32:06;;;;;;;15.97;4.77;;;17.70;42.20;;;;;;6009706;23;20505;-71
2023/05/29 08:34:33;;;;;;;9.37;2.30;;;18.10;40.20;;;;;;6010135;23;20933;-71
2023/05/29 08:37:01;;;;;;;10.93;3.50;;;17.70;40.70;;;;;;6010323;23;20441;-71
2023/05/29 08:39:28;;;;;;;9.30;2.80;;;17.90;42.40;;;;;;6010342;23;20418;-71
2023/05/29 08:42:02;;;;;;;13.50;3.40;;;17.70;42.20;;;;;;6010126;23;20775;-71
2023/05/29 08:44:32;;;;;;;14.47;3.07;;;18.30;42.80;;;;;;6010319;23;20407;-71
2023/05/29 08:47:02;;;;;;;11.63;3.30;;;18.60;41.50;;;;;;6010074;23;20403;-71
2023/05/29 08:49:35;;;;;;;12.50;2.77;;;18.90;36.30;;;;;;6010703;23;20752;-71
2023/05/29 08:52:10;;;;;;;9.43;3.00;;;18.70;37.60;;;;;;6009968;23;20405;-71
2023/05/29 08:54:37;;;;;;;12.30;2.90;;;18.90;35.30;;;;;;6010334;23;20794;-71
2023/05/29 08:57:05;;;;;;;12.83;3.10;;;19.20;39.10;;;;;;6010145;23;20418;-71
2023/05/29 08:59:33;;;;;;;11.43;2.40;;;18.80;38.50;;;;;;6010283;23;20418;-71
2023/05/29 09:02:00;;;;;;;13.47;2.70;;;18.80;37.40;;;;;;6009687;23;20443;-71
2023/05/29 09:04:30;;;;;;;9.17;3.63;;;19.20;39.20;;;;;;6010207;23;20393;-71
2023/05/29 09:06:58;;;;;;;11.40;3.60;;;19.30;34.70;;;;;;6009765;23;20457;-71
2023/05/29 09:09:27;;;;;;;10.90;3.30;;;18.90;34.30;;;;;;6010131;23;20419;-71
2023/05/29 09:11:54;;;;;;;15.20;4.10;;;19.40;36.60;;;;;;6010087;23;20421;-71
2023/05/29 09:14:35;;;;;;;8.07;3.10;;;20.40;34.90;;;;;;6010270;23;20418;-71
2023/05/29 09:17:03;;;;;;;10.97;3.40;;;20.80;31.80;;;;;;6010238;23;20393;-71
2023/05/29 09:19:30;;;;;;;13.97;3.20;;;21.00;32.20;;;;;;6010234;23;20451;-71
2023/05/29 09:22:05;;;;;;;11.80;3.20;;;20.10;30.00;;;;;;6009474;23;20471;-71
2023/05/29 09:24:33;;;;;;;11.77;3.07;;;20.00;31.50;;;;;;6010282;23;20418;-71
2023/05/29 09:27:01;;;;;;;9.73;3.43;;;19.90;35.20;;;;;;6009987;23;20418;-71
2023/05/29 09:29:28;;;;;;;14.30;4.17;;;20.10;35.40;;;;;;6011880;23;20784;-71
2023/05/29 09:31:57;;;;;;;13.70;2.73;;;20.40;31.00;;;;;;6011255;23;20433;-71
2023/05/29 09:34:26;;;;;;;8.27;3.20;;;20.30;30.60;;;;;;6011751;23;20447;-71
2023/05/29 09:36:53;;;;;;;14.10;2.90;;;19.50;31.00;;;;;;6011683;23;20418;-71
2023/05/29 09:39:20;;;;;;;13.43;3.07;;;19.60;31.80;;;;;;6011427;23;20425;-71
2023/05/29 09:41:49;;;;;;;12.30;3.10;;;19.50;34.70;;;;;;6011579;23;20449;-71
2023/05/29 09:44:16;;;;;;;13.93;2.80;;;20.20;35.50;;;;;;6011467;23;20967;-71
2023/05/29 09:46:43;;;;;;;10.53;3.40;;;20.30;31.50;;;;;;6011632;23;20748;-71
2023/05/29 09:49:12;;;;;;;11.77;3.13;;;20.30;30.50;;;;;;6011251;23;20419;-71
2023/05/29 09:51:39;;;;;;;9.40;2.67;;;19.90;32.40;;;;;;6011437;23;20414;-71
2023/05/29 09:54:18;;;;;;;11.60;4.23;;;19.90;35.20;;;;;;6011296;23;20425;-72
2023/05/29 09:56:47;;;;;;;8.90;2.97;;;19.80;31.70;;;;;;6011532;23;20406;-71
2023/05/29 09:59:17;;;;;;;10.97;3.23;;;20.30;32.00;;;;;;6011659;23;20418;-71
2023/05/29 10:01:45;;;;;;;11.13;3.40;;;20.40;35.70;;;;;;6011452;23;20792;-71
2023/05/29 10:04:13;;;;;;;11.90;2.90;;;20.40;29.50;;;;;;6011158;23;20418;-71
2023/05/29 10:06:45;;;;;;;8.70;3.57;;;20.40;28.50;;;;;;6011140;23;20418;-71
2023/05/29 10:09:14;;;;;;;9.57;2.77;;;20.40;27.50;;;;;;6011554;23;20402;-69
2023/05/29 10:11:45;;;;;;;11.73;3.23;;;21.00;27.70;;;;;;6011266;23;20415;-69
2023/05/29 10:14:18;;;;;;;11.10;3.07;;;20.90;30.10;;;;;;6011307;23;20509;-69
2023/05/29 10:16:48;;;;;;;14.60;4.00;;;20.70;27.50;;;;;;6011130;23;21056;-69
2023/05/29 10:19:19;;;;;;;14.32;3.90;;;20.50;33.20;;;;;;6009969;23;20894;-66
2023/05/29 10:21:47;;;;;;;12.90;4.07;;;20.70;27.50;;;;;;6011035;23;20182;-66
2023/05/29 10:24:15;;;;;;;10.50;3.00;;;20.50;28.50;;;;;;6011023;23;20418;-66
2023/05/29 10:26:44;;;;;;;12.17;3.30;;;20.70;28.60;;;;;;6011195;23;20453;-66
2023/05/29 10:29:18;;;;;;;17.30;4.00;;;20.50;27.40;;;;;;6011226;23;20739;-66
2023/05/29 10:32:01;;;;;;;13.37;3.57;;;21.20;31.80;;;;;;6010988;23;20421;-65
2023/05/29 10:34:34;;;;;;;10.93;3.20;;;21.30;25.70;;;;;;6011584;23;20859;-65
2023/05/29 10:37:10;;;;;;;7.73;2.27;;;20.90;27.70;;;;;;6011317;23;20403;-66
2023/05/29 10:39:37;;;;;;;9.63;3.20;;;20.10;26.80;;;;;;6011016;23;20399;-65
2023/05/29 10:42:41;;;;;;;16.60;3.60;;;20.90;27.70;;;;;;6011075;23;20442;-65
2023/05/29 10:45:09;;;;;;;13.53;3.60;;;20.80;24.00;;;;;;6011366;23;20505;-65
2023/05/29 10:47:37;;;;;;;9.50;3.13;;;21.40;28.00;;;;;;6011136;23;20911;-65
2023/05/29 10:50:04;;;;;;;9.90;3.50;;;21.60;25.20;;;;;;6011749;23;20737;-65
2023/05/29 10:52:32;;;;;;;9.03;2.80;;;21.70;25.30;;;;;;6011527;23;20456;-66
2023/05/29 10:55:00;;;;;;;9.67;3.10;;;21.30;26.00;;;;;;6011639;23;20405;-66
2023/05/29 10:57:29;;;;;;;12.43;4.43;;;21.20;25.50;;;;;;6011415;23;20422;-66
2023/05/29 11:00:12;;;;;;;10.37;2.47;;;21.20;24.70;;;;;;6011531;23;20419;-66
2023/05/29 11:02:42;;;;;;;11.83;3.03;;;21.90;26.50;;;;;;6011317;23;20427;-65
2023/05/29 11:05:24;;;;;;;11.80;2.73;;;22.20;21.30;;;;;;6011222;23;20509;-66
2023/05/29 11:07:57;;;;;;;7.40;2.17;;;22.60;22.10;;;;;;6011046;23;20910;-66
2023/05/29 11:10:43;;;;;;;8.20;2.73;;;22.40;18.40;;;;;;6011024;23;20419;-66
2023/05/29 11:13:11;;;;;;;9.20;3.03;;;21.70;20.90;;;;;;6011330;23;20415;-65
2023/05/29 11:15:38;;;;;;;13.87;3.77;;;22.00;21.10;;;;;;6011063;23;20423;-66
2023/05/29 11:18:09;;;;;;;8.93;2.70;;;22.00;21.10;;;;;;6011319;23;20800;-65
2023/05/29 11:20:46;;;;;;;10.53;3.57;;;22.40;24.70;;;;;;6011347;23;20418;-65
2023/05/29 11:23:17;;;;;;;13.63;3.60;;;22.40;19.50;;;;;;6011153;23;20426;-65
2023/05/29 11:25:47;;;;;;;13.90;3.50;;;22.70;21.60;;;;;;6011035;23;20403;-66
2023/05/29 11:28:14;;;;;;;9.87;2.90;;;22.70;17.90;;;;;;6011331;23;20796;-66
2023/05/29 11:30:45;;;;;;;11.43;4.03;;;22.30;20.80;;;;;;6010859;23;20895;-66
2023/05/29 11:33:21;;;;;;;11.00;2.53;;;22.30;19.00;;;;;;6010806;23;20415;-67
2023/05/29 11:35:51;;;;;;;13.60;3.00;;;22.20;17.40;;;;;;6010438;23;20458;-62
2023/05/29 11:38:18;;;;;;;12.90;3.33;;;22.70;17.20;;;;;;6010485;23;20888;-62
2023/05/29 11:40:45;;;;;;;12.90;3.10;;;23.00;17.80;;;;;;6010695;23;20426;-62
2023/05/29 11:43:13;;;;;;;13.83;4.00;;;23.50;16.80;;;;;;6010441;23;20761;-63
2023/05/29 11:45:40;;;;;;;11.60;3.13;;;24.00;15.10;;;;;;6010644;23;20419;-63
2023/05/29 11:48:07;;;;;;;12.60;3.10;;;23.10;14.40;;;;;;6010396;23;20426;-62
2023/05/29 11:50:37;;;;;;;14.00;3.53;;;23.20;14.50;;;;;;6011146;23;20396;-62
2023/05/29 11:53:07;;;;;;;13.80;2.73;;;23.20;14.50;;;;;;6010918;23;20415;-62
2023/05/29 11:55:35;;;;;;;8.40;2.40;;;22.20;15.20;;;;;;6011021;23;20419;-62
2023/05/29 11:58:03;;;;;;;9.93;3.00;;;22.40;18.40;;;;;;6010696;23;20419;-62
2023/05/29 12:00:32;;;;;;;10.33;2.93;;;22.70;14.30;;;;;;6011058;23;20419;-62
2023/05/29 12:03:03;;;;;;;12.17;3.20;;;23.40;14.70;;;;;;6010830;23;20445;-62
2023/05/29 12:05:30;;;;;;;12.73;3.43;;;23.30;10.80;;;;;;6011068;23;20426;-62
2023/05/29 12:08:00;;;;;;;12.87;4.10;;;24.40;9.20;;;;;;6010635;23;20425;-62
2023/05/29 12:10:28;;;;;;;12.37;2.90;;;24.90;8.10;;;;;;6010741;23;20402;-62
2023/05/29 12:12:57;;;;;;;8.77;2.83;;;25.10;9.70;;;;;;6010479;23;20414;-62
2023/05/29 12:15:24;;;;;;;9.63;2.73;;;24.20;7.40;;;;;;6010385;23;20454;-62
2023/05/29 12:17:51;;;;;;;8.47;2.17;;;24.00;11.80;;;;;;6010666;23;20506;-62
2023/05/29 12:20:20;;;;;;;10.17;3.47;;;23.70;7.20;;;;;;6010817;23;20443;-62
2023/05/29 12:22:47;;;;;;;11.67;2.93;;;23.60;10.80;;;;;;6010399;23;20449;-62
2023/05/29 12:25:16;;;;;;;14.60;2.90;;;24.00;10.10;;;;;;6010898;23;20429;-62
2023/05/29 12:27:46;;;;;;;6.63;2.37;;;24.10;8.70;;;;;;6010532;23;20419;-62
2023/05/29 12:30:15;;;;;;;9.90;3.30;;;23.50;10.90;;;;;;6010213;23;20509;-62
2023/05/29 12:32:43;;;;;;;12.07;3.20;;;23.50;11.00;;;;;;6010399;23;20843;-62
2023/05/29 12:35:15;;;;;;;10.80;2.80;;;23.00;8.70;;;;;;6011033;23;20715;-62
2023/05/29 12:37:46;;;;;;;16.40;2.73;;;23.50;12.00;;;;;;6010290;23;20478;-65
2023/05/29 12:40:18;;;;;;;11.60;2.70;;;23.50;7.10;;;;;;6010472;23;20418;-62
2023/05/29 12:42:45;;;;;;;11.00;3.10;;;23.20;11.30;;;;;;6010325;23;20438;-63
2023/05/29 12:45:12;;;;;;;9.70;2.70;;;23.20;10.80;;;;;;6010194;23;20418;-63
2023/05/29 12:47:46;;;;;;;10.13;3.33;;;22.90;10.50;;;;;;6010264;23;20418;-63